WJA187 CYYC-CYLW
Flight info
| Callsign | WJA187 |
|---|---|
| Flight time | 0h 45m |
| Altitude | 34000 |
| Route | BOTAG Q894 BINVO DCT ROBTI DCT NORIP NORIP5 |
| Aircraft | B738/M-L/C |
Departure
| Time | 2026-05-04 20:58 |
|---|---|
| Airport | Calgary International Airport (CYYC) |
Arrival
| Time | 2026-05-04 21:44 |
|---|---|
| Airport | Kelowna International Airport (CYLW) |
| Time | Latitude | Longitude | Altitude | Speed | Heading |
|---|---|---|---|---|---|
| 2026-05-04 20:28 | 51.12869 | -114.00925 | 3560 ft | 0 kts | 96° |
| 2026-05-04 20:46 | 51.12869 | -114.00926 | 3560 ft | 0 kts | 94° |
| 2026-05-04 20:46 | 51.12873 | -114.00939 | 3560 ft | 2 kts | 125° |
| 2026-05-04 20:46 | 51.12878 | -114.00958 | 3559 ft | 2 kts | 92° |
| 2026-05-04 20:47 | 51.12879 | -114.00982 | 3559 ft | 2 kts | 97° |
| 2026-05-04 20:47 | 51.12881 | -114.01006 | 3559 ft | 2 kts | 95° |
| 2026-05-04 20:47 | 51.12886 | -114.01028 | 3558 ft | 2 kts | 136° |
| 2026-05-04 20:47 | 51.12899 | -114.01039 | 3558 ft | 2 kts | 169° |
| 2026-05-04 20:48 | 51.12913 | -114.01038 | 3559 ft | 1 kts | 201° |
| 2026-05-04 20:48 | 51.12919 | -114.01034 | 3559 ft | 1 kts | 209° |
| 2026-05-04 20:48 | 51.12921 | -114.01032 | 3559 ft | 0 kts | 207° |
| 2026-05-04 20:50 | 51.12920 | -114.01033 | 3559 ft | 1 kts | 207° |
| 2026-05-04 20:50 | 51.12881 | -114.01065 | 3558 ft | 10 kts | 212° |
| 2026-05-04 20:50 | 51.12817 | -114.01154 | 3556 ft | 11 kts | 228° |
| 2026-05-04 20:51 | 51.12755 | -114.01249 | 3554 ft | 14 kts | 221° |
| 2026-05-04 20:51 | 51.12679 | -114.01353 | 3553 ft | 11 kts | 220° |
| 2026-05-04 20:51 | 51.12607 | -114.01318 | 3553 ft | 13 kts | 106° |
| 2026-05-04 20:51 | 51.12607 | -114.01160 | 3553 ft | 14 kts | 85° |
| 2026-05-04 20:52 | 51.12613 | -114.01002 | 3556 ft | 14 kts | 89° |
| 2026-05-04 20:52 | 51.12614 | -114.00849 | 3558 ft | 13 kts | 90° |
| 2026-05-04 20:52 | 51.12614 | -114.00693 | 3560 ft | 14 kts | 89° |
| 2026-05-04 20:52 | 51.12614 | -114.00531 | 3561 ft | 14 kts | 91° |
| 2026-05-04 20:53 | 51.12613 | -114.00364 | 3563 ft | 15 kts | 90° |
| 2026-05-04 20:53 | 51.12613 | -114.00198 | 3566 ft | 14 kts | 90° |
| 2026-05-04 20:53 | 51.12613 | -114.00029 | 3567 ft | 16 kts | 89° |
| 2026-05-04 20:53 | 51.12613 | -113.99841 | 3571 ft | 17 kts | 90° |
| 2026-05-04 20:54 | 51.12614 | -113.99638 | 3572 ft | 18 kts | 90° |
| 2026-05-04 20:54 | 51.12596 | -113.99468 | 3573 ft | 15 kts | 137° |
| 2026-05-04 20:54 | 51.12470 | -113.99445 | 3572 ft | 21 kts | 180° |
| 2026-05-04 20:54 | 51.12317 | -113.99446 | 3570 ft | 23 kts | 180° |
| 2026-05-04 20:55 | 51.12156 | -113.99446 | 3568 ft | 25 kts | 180° |
| 2026-05-04 20:55 | 51.11976 | -113.99447 | 3565 ft | 23 kts | 179° |
| 2026-05-04 20:55 | 51.11798 | -113.99446 | 3562 ft | 26 kts | 180° |
| 2026-05-04 20:55 | 51.11623 | -113.99445 | 3559 ft | 25 kts | 180° |
| 2026-05-04 20:56 | 51.11442 | -113.99446 | 3558 ft | 23 kts | 179° |
| 2026-05-04 20:56 | 51.11265 | -113.99447 | 3556 ft | 25 kts | 180° |
| 2026-05-04 20:56 | 51.11119 | -113.99448 | 3556 ft | 17 kts | 180° |
| 2026-05-04 20:56 | 51.11037 | -113.99361 | 3556 ft | 13 kts | 101° |
| 2026-05-04 20:57 | 51.11035 | -113.99194 | 3557 ft | 14 kts | 90° |
| 2026-05-04 20:57 | 51.11063 | -113.99053 | 3557 ft | 13 kts | 30° |
| 2026-05-04 20:57 | 51.11145 | -113.99038 | 3557 ft | 10 kts | 359° |
| 2026-05-04 20:57 | 51.11214 | -113.99037 | 3557 ft | 10 kts | 360° |
| 2026-05-04 20:58 | 51.11443 | -113.99039 | 3559 ft | 68 kts | 358° |
| 2026-05-04 20:58 | 51.12159 | -113.99040 | 3568 ft | 135 kts | 0° |
| 2026-05-04 20:58 | 51.13250 | -113.98996 | 3971 ft | 162 kts | 358° |
| 2026-05-04 20:58 | 51.14402 | -113.98999 | 4858 ft | 166 kts | 356° |
| 2026-05-04 20:59 | 51.15496 | -113.99066 | 5963 ft | 148 kts | 355° |
| 2026-05-04 20:59 | 51.16724 | -113.99174 | 6141 ft | 189 kts | 356° |
| 2026-05-04 20:59 | 51.18245 | -113.99280 | 7144 ft | 198 kts | 356° |
| 2026-05-04 20:59 | 51.19569 | -113.99373 | 8519 ft | 182 kts | 353° |
| 2026-05-04 21:00 | 51.21105 | -113.99497 | 8988 ft | 216 kts | 357° |
| 2026-05-04 21:00 | 51.22795 | -113.99618 | 9815 ft | 229 kts | 351° |
| 2026-05-04 21:00 | 51.24393 | -114.00797 | 10742 ft | 240 kts | 315° |
| 2026-05-04 21:00 | 51.25169 | -114.03655 | 11876 ft | 258 kts | 278° |
| 2026-05-04 21:01 | 51.24728 | -114.06928 | 12821 ft | 284 kts | 252° |
| 2026-05-04 21:01 | 51.23609 | -114.10088 | 13691 ft | 299 kts | 248° |
| 2026-05-04 21:01 | 51.22379 | -114.13452 | 14614 ft | 308 kts | 250° |
| 2026-05-04 21:01 | 51.21190 | -114.16942 | 16019 ft | 299 kts | 252° |
| 2026-05-04 21:02 | 51.20208 | -114.19965 | 17107 ft | 294 kts | 254° |
| 2026-05-04 21:02 | 51.19228 | -114.23045 | 18038 ft | 294 kts | 255° |
| 2026-05-04 21:02 | 51.18166 | -114.26407 | 18956 ft | 297 kts | 255° |
| 2026-05-04 21:02 | 51.17083 | -114.29826 | 19821 ft | 300 kts | 256° |
| 2026-05-04 21:03 | 51.15961 | -114.33356 | 20572 ft | 307 kts | 255° |
| 2026-05-04 21:03 | 51.14822 | -114.36904 | 21360 ft | 311 kts | 255° |
| 2026-05-04 21:03 | 51.13668 | -114.40459 | 22144 ft | 314 kts | 255° |
| 2026-05-04 21:03 | 51.12481 | -114.44128 | 22838 ft | 320 kts | 255° |
| 2026-05-04 21:04 | 51.11273 | -114.47851 | 23571 ft | 323 kts | 255° |
| 2026-05-04 21:04 | 51.10043 | -114.51636 | 24308 ft | 326 kts | 255° |
| 2026-05-04 21:04 | 51.08827 | -114.55385 | 24981 ft | 330 kts | 255° |
| 2026-05-04 21:04 | 51.07618 | -114.59206 | 25635 ft | 330 kts | 258° |
| 2026-05-04 21:05 | 51.06635 | -114.63165 | 26209 ft | 325 kts | 265° |
| 2026-05-04 21:05 | 51.05979 | -114.66933 | 26795 ft | 322 kts | 268° |
| 2026-05-04 21:05 | 51.05411 | -114.70717 | 27366 ft | 323 kts | 268° |
| 2026-05-04 21:05 | 51.04821 | -114.74710 | 27916 ft | 326 kts | 268° |
| 2026-05-04 21:06 | 51.04208 | -114.78801 | 28400 ft | 330 kts | 268° |
| 2026-05-04 21:06 | 51.03582 | -114.82848 | 28882 ft | 335 kts | 267° |
| 2026-05-04 21:06 | 51.02934 | -114.86900 | 29435 ft | 336 kts | 267° |
| 2026-05-04 21:06 | 51.02248 | -114.91127 | 30018 ft | 337 kts | 266° |
| 2026-05-04 21:07 | 51.01566 | -114.95316 | 30562 ft | 337 kts | 266° |
| 2026-05-04 21:07 | 51.00899 | -114.99451 | 30935 ft | 340 kts | 267° |
| 2026-05-04 21:07 | 51.00212 | -115.03703 | 31294 ft | 344 kts | 267° |
| 2026-05-04 21:07 | 50.99486 | -115.08132 | 31487 ft | 352 kts | 267° |
| 2026-05-04 21:08 | 50.98781 | -115.12438 | 31896 ft | 353 kts | 268° |
| 2026-05-04 21:08 | 50.98071 | -115.16749 | 32271 ft | 355 kts | 268° |
| 2026-05-04 21:08 | 50.97360 | -115.21081 | 32496 ft | 362 kts | 269° |
| 2026-05-04 21:08 | 50.96630 | -115.25538 | 32825 ft | 365 kts | 268° |
| 2026-05-04 21:09 | 50.95889 | -115.30026 | 33068 ft | 371 kts | 269° |
| 2026-05-04 21:09 | 50.95137 | -115.34569 | 33428 ft | 372 kts | 269° |
| 2026-05-04 21:09 | 50.94359 | -115.39259 | 33729 ft | 376 kts | 270° |
| 2026-05-04 21:09 | 50.93599 | -115.43810 | 34029 ft | 379 kts | 270° |
| 2026-05-04 21:10 | 50.92020 | -115.53371 | 34013 ft | 400 kts | 269° |
| 2026-05-04 21:10 | 50.90449 | -115.62818 | 34010 ft | 414 kts | 268° |
| 2026-05-04 21:11 | 50.88851 | -115.72153 | 34015 ft | 419 kts | 267° |
| 2026-05-04 21:11 | 50.87204 | -115.81873 | 34001 ft | 435 kts | 267° |
| 2026-05-04 21:12 | 50.85503 | -115.91903 | 33996 ft | 452 kts | 267° |
| 2026-05-04 21:12 | 50.83712 | -116.02298 | 33997 ft | 457 kts | 266° |
| 2026-05-04 21:13 | 50.81905 | -116.12598 | 34039 ft | 458 kts | 266° |
| 2026-05-04 21:13 | 50.80090 | -116.22950 | 34063 ft | 459 kts | 266° |
| 2026-05-04 21:14 | 50.78275 | -116.33289 | 34064 ft | 460 kts | 266° |
| 2026-05-04 21:14 | 50.76438 | -116.43707 | 34020 ft | 461 kts | 266° |
| 2026-05-04 21:15 | 50.74420 | -116.54114 | 34010 ft | 467 kts | 262° |
| 2026-05-04 21:15 | 50.71975 | -116.64389 | 34001 ft | 467 kts | 260° |
| 2026-05-04 21:16 | 50.69462 | -116.74618 | 34023 ft | 470 kts | 259° |
| 2026-05-04 21:16 | 50.66951 | -116.84961 | 34031 ft | 472 kts | 260° |
| 2026-05-04 21:17 | 50.64469 | -116.95268 | 34023 ft | 471 kts | 260° |
| 2026-05-04 21:17 | 50.62001 | -117.05496 | 34016 ft | 451 kts | 260° |
| 2026-05-04 21:18 | 50.60731 | -117.10683 | 33916 ft | 436 kts | 261° |
| 2026-05-04 21:18 | 50.59559 | -117.15491 | 33787 ft | 424 kts | 261° |
| 2026-05-04 21:18 | 50.57227 | -117.25258 | 33803 ft | 436 kts | 261° |
| 2026-05-04 21:19 | 50.54953 | -117.34808 | 33800 ft | 443 kts | 261° |
| 2026-05-04 21:19 | 50.53804 | -117.39533 | 33584 ft | 436 kts | 260° |
| 2026-05-04 21:19 | 50.52677 | -117.44132 | 33131 ft | 431 kts | 260° |
| 2026-05-04 21:20 | 50.51541 | -117.48769 | 32469 ft | 432 kts | 260° |
| 2026-05-04 21:20 | 50.50398 | -117.53442 | 31736 ft | 433 kts | 259° |
| 2026-05-04 21:20 | 50.49260 | -117.58100 | 30949 ft | 435 kts | 259° |
| 2026-05-04 21:20 | 50.48114 | -117.62775 | 30171 ft | 436 kts | 258° |
| 2026-05-04 21:21 | 50.46993 | -117.67348 | 29319 ft | 439 kts | 257° |
| 2026-05-04 21:21 | 50.45849 | -117.72005 | 28465 ft | 441 kts | 257° |
| 2026-05-04 21:21 | 50.44673 | -117.76775 | 27586 ft | 443 kts | 256° |
| 2026-05-04 21:21 | 50.43514 | -117.81468 | 26737 ft | 444 kts | 256° |
| 2026-05-04 21:22 | 50.42294 | -117.86378 | 26075 ft | 440 kts | 256° |
| 2026-05-04 21:22 | 50.41038 | -117.91410 | 25382 ft | 436 kts | 256° |
| 2026-05-04 21:22 | 50.39773 | -117.96470 | 24642 ft | 433 kts | 255° |
| 2026-05-04 21:22 | 50.38514 | -118.01498 | 23979 ft | 427 kts | 255° |
| 2026-05-04 21:23 | 50.37331 | -118.06213 | 23288 ft | 424 kts | 255° |
| 2026-05-04 21:23 | 50.36239 | -118.10571 | 22491 ft | 424 kts | 254° |
| 2026-05-04 21:23 | 50.35007 | -118.15488 | 21831 ft | 419 kts | 254° |
| 2026-05-04 21:23 | 50.33776 | -118.20385 | 21214 ft | 413 kts | 254° |
| 2026-05-04 21:24 | 50.32609 | -118.25017 | 20439 ft | 413 kts | 254° |
| 2026-05-04 21:24 | 50.31519 | -118.29341 | 19721 ft | 412 kts | 253° |
| 2026-05-04 21:24 | 50.30471 | -118.33490 | 18993 ft | 411 kts | 253° |
| 2026-05-04 21:24 | 50.29423 | -118.37716 | 18314 ft | 407 kts | 255° |
| 2026-05-04 21:25 | 50.28383 | -118.42511 | 17687 ft | 399 kts | 257° |
| 2026-05-04 21:25 | 50.27481 | -118.47109 | 17063 ft | 393 kts | 258° |
| 2026-05-04 21:25 | 50.26705 | -118.51192 | 16347 ft | 392 kts | 258° |
| 2026-05-04 21:25 | 50.25925 | -118.55257 | 15688 ft | 391 kts | 257° |
| 2026-05-04 21:26 | 50.25137 | -118.59309 | 15055 ft | 389 kts | 257° |
| 2026-05-04 21:26 | 50.24242 | -118.63816 | 14428 ft | 384 kts | 257° |
| 2026-05-04 21:26 | 50.23399 | -118.68012 | 13756 ft | 383 kts | 256° |
| 2026-05-04 21:26 | 50.22597 | -118.71966 | 13087 ft | 382 kts | 255° |
| 2026-05-04 21:27 | 50.21795 | -118.75903 | 12466 ft | 380 kts | 255° |
| 2026-05-04 21:27 | 50.20995 | -118.79818 | 11843 ft | 379 kts | 255° |
| 2026-05-04 21:27 | 50.20200 | -118.83692 | 11313 ft | 367 kts | 255° |
| 2026-05-04 21:27 | 50.19434 | -118.87402 | 11124 ft | 340 kts | 255° |
| 2026-05-04 21:28 | 50.18739 | -118.90753 | 10988 ft | 317 kts | 255° |
| 2026-05-04 21:28 | 50.18026 | -118.94204 | 10858 ft | 293 kts | 255° |
| 2026-05-04 21:28 | 50.17374 | -118.97376 | 10778 ft | 288 kts | 255° |
| 2026-05-04 21:28 | 50.16761 | -119.00390 | 10599 ft | 291 kts | 255° |
| 2026-05-04 21:29 | 50.16149 | -119.03370 | 10453 ft | 282 kts | 255° |
| 2026-05-04 21:29 | 50.15557 | -119.06226 | 10317 ft | 272 kts | 256° |
| 2026-05-04 21:29 | 50.14982 | -119.08994 | 10174 ft | 264 kts | 256° |
| 2026-05-04 21:29 | 50.14474 | -119.11678 | 10090 ft | 252 kts | 259° |
| 2026-05-04 21:30 | 50.14032 | -119.14471 | 10094 ft | 242 kts | 261° |
| 2026-05-04 21:30 | 50.13613 | -119.17271 | 10090 ft | 245 kts | 260° |
| 2026-05-04 21:30 | 50.13169 | -119.20129 | 10082 ft | 246 kts | 260° |
| 2026-05-04 21:30 | 50.12708 | -119.23005 | 10077 ft | 245 kts | 260° |
| 2026-05-04 21:31 | 50.11773 | -119.28783 | 10075 ft | 245 kts | 259° |
| 2026-05-04 21:31 | 50.11304 | -119.31685 | 10068 ft | 246 kts | 260° |
| 2026-05-04 21:31 | 50.10833 | -119.34596 | 10066 ft | 245 kts | 260° |
| 2026-05-04 21:32 | 50.10365 | -119.37477 | 10061 ft | 245 kts | 260° |
| 2026-05-04 21:32 | 50.09897 | -119.40346 | 10055 ft | 244 kts | 260° |
| 2026-05-04 21:32 | 50.09430 | -119.43212 | 10063 ft | 243 kts | 261° |
| 2026-05-04 21:32 | 50.08962 | -119.46093 | 10067 ft | 245 kts | 260° |
| 2026-05-04 21:33 | 50.08493 | -119.48958 | 10058 ft | 244 kts | 260° |
| 2026-05-04 21:33 | 50.08015 | -119.51874 | 10065 ft | 244 kts | 260° |
| 2026-05-04 21:33 | 50.07567 | -119.54606 | 10087 ft | 244 kts | 260° |
| 2026-05-04 21:33 | 50.07134 | -119.57184 | 10107 ft | 245 kts | 257° |
| 2026-05-04 21:34 | 50.06451 | -119.59617 | 10103 ft | 251 kts | 238° |
| 2026-05-04 21:34 | 50.05061 | -119.61462 | 10124 ft | 257 kts | 211° |
| 2026-05-04 21:34 | 50.03428 | -119.62610 | 10102 ft | 258 kts | 206° |
| 2026-05-04 21:34 | 50.01756 | -119.63690 | 10066 ft | 260 kts | 207° |
| 2026-05-04 21:35 | 50.00080 | -119.64857 | 9891 ft | 261 kts | 209° |
| 2026-05-04 21:35 | 49.98434 | -119.66071 | 9635 ft | 258 kts | 209° |
| 2026-05-04 21:35 | 49.96752 | -119.67217 | 9366 ft | 257 kts | 201° |
| 2026-05-04 21:35 | 49.94970 | -119.67636 | 9097 ft | 260 kts | 177° |
| 2026-05-04 21:36 | 49.92991 | -119.67114 | 8813 ft | 263 kts | 167° |
| 2026-05-04 21:36 | 49.91076 | -119.66439 | 8517 ft | 260 kts | 168° |
| 2026-05-04 21:36 | 49.89202 | -119.65875 | 8228 ft | 257 kts | 170° |
| 2026-05-04 21:36 | 49.87448 | -119.65426 | 7999 ft | 257 kts | 172° |
| 2026-05-04 21:37 | 49.85663 | -119.64992 | 7594 ft | 261 kts | 172° |
| 2026-05-04 21:37 | 49.83794 | -119.64536 | 7234 ft | 261 kts | 171° |
| 2026-05-04 21:37 | 49.81877 | -119.63937 | 6954 ft | 258 kts | 162° |
| 2026-05-04 21:37 | 49.80228 | -119.62515 | 6575 ft | 256 kts | 133° |
| 2026-05-04 21:38 | 49.79188 | -119.60080 | 6258 ft | 246 kts | 108° |
| 2026-05-04 21:38 | 49.78707 | -119.57327 | 5907 ft | 233 kts | 92° |
| 2026-05-04 21:38 | 49.78776 | -119.54815 | 5679 ft | 212 kts | 68° |
| 2026-05-04 21:38 | 49.79411 | -119.52706 | 5387 ft | 205 kts | 52° |
| 2026-05-04 21:39 | 49.80311 | -119.50948 | 5091 ft | 191 kts | 41° |
| 2026-05-04 21:39 | 49.81268 | -119.49502 | 4838 ft | 178 kts | 39° |
| 2026-05-04 21:39 | 49.82168 | -119.48161 | 4600 ft | 165 kts | 40° |
| 2026-05-04 21:39 | 49.82976 | -119.46896 | 4481 ft | 157 kts | 43° |
| 2026-05-04 21:40 | 49.83657 | -119.45443 | 4265 ft | 157 kts | 57° |
| 2026-05-04 21:40 | 49.84095 | -119.43806 | 4074 ft | 158 kts | 68° |
| 2026-05-04 21:40 | 49.84423 | -119.42117 | 3877 ft | 157 kts | 64° |
| 2026-05-04 21:40 | 49.84946 | -119.40578 | 3626 ft | 152 kts | 50° |
| 2026-05-04 21:41 | 49.85634 | -119.39265 | 3391 ft | 150 kts | 43° |
| 2026-05-04 21:41 | 49.86402 | -119.38136 | 3206 ft | 147 kts | 34° |
| 2026-05-04 21:41 | 49.87322 | -119.37349 | 2978 ft | 141 kts | 18° |
| 2026-05-04 21:41 | 49.88288 | -119.36956 | 2744 ft | 135 kts | 8° |
| 2026-05-04 21:42 | 49.89251 | -119.36836 | 2561 ft | 134 kts | 356° |
| 2026-05-04 21:42 | 49.90227 | -119.37014 | 2375 ft | 137 kts | 352° |
| 2026-05-04 21:42 | 49.91172 | -119.37174 | 2149 ft | 137 kts | 354° |
| 2026-05-04 21:42 | 49.92109 | -119.37285 | 1940 ft | 135 kts | 354° |
| 2026-05-04 21:43 | 49.93036 | -119.37411 | 1756 ft | 133 kts | 353° |
| 2026-05-04 21:43 | 49.93970 | -119.37572 | 1588 ft | 132 kts | 357° |
| 2026-05-04 21:43 | 49.94894 | -119.37685 | 1458 ft | 126 kts | 353° |
| 2026-05-04 21:43 | 49.95687 | -119.37791 | 1455 ft | 93 kts | 354° |
| 2026-05-04 21:44 | 49.96196 | -119.37860 | 1454 ft | 52 kts | 356° |
| 2026-05-04 21:44 | 49.96460 | -119.37888 | 1454 ft | 20 kts | 356° |
| 2026-05-04 21:44 | 49.96581 | -119.37927 | 1453 ft | 13 kts | 323° |
| 2026-05-04 21:44 | 49.96608 | -119.38008 | 1453 ft | 7 kts | 273° |
| 2026-05-04 21:45 | 49.96550 | -119.38049 | 1453 ft | 14 kts | 175° |
| 2026-05-04 21:45 | 49.96428 | -119.38032 | 1453 ft | 21 kts | 174° |
| 2026-05-04 21:45 | 49.96263 | -119.38009 | 1454 ft | 24 kts | 175° |
| 2026-05-04 21:45 | 49.96109 | -119.37990 | 1454 ft | 19 kts | 174° |
| 2026-05-04 21:46 | 49.95981 | -119.37974 | 1454 ft | 19 kts | 174° |
| 2026-05-04 21:46 | 49.95828 | -119.37953 | 1455 ft | 22 kts | 175° |
| 2026-05-04 21:46 | 49.95657 | -119.37931 | 1455 ft | 26 kts | 175° |
| 2026-05-04 21:46 | 49.95467 | -119.37904 | 1455 ft | 25 kts | 174° |
| 2026-05-04 21:47 | 49.95300 | -119.37881 | 1456 ft | 22 kts | 174° |
| 2026-05-04 21:47 | 49.95173 | -119.37869 | 1456 ft | 12 kts | 198° |
| 2026-05-04 21:47 | 49.95172 | -119.37938 | 1456 ft | 2 kts | 328° |
| 2026-05-04 21:47 | 49.95184 | -119.37958 | 1456 ft | 3 kts | 301° |
| 2026-05-04 21:48 | 49.95192 | -119.38004 | 1456 ft | 3 kts | 277° |
| 2026-05-04 21:48 | 49.95193 | -119.38017 | 1456 ft | 0 kts | 275° |